sensor_id;sensor_type;location;lat;lon;timestamp;pressure;altitude;pressure_sealevel;temperature;humidity
41306;BME280;27051;50.376;19.152;2023-02-21T00:01:26;97490.29;;;10.62;55.37
41306;BME280;27051;50.376;19.152;2023-02-21T00:03:52;97489.43;;;10.58;55.41
41306;BME280;27051;50.376;19.152;2023-02-21T00:06:31;97490.83;;;10.55;55.52
41306;BME280;27051;50.376;19.152;2023-02-21T00:08:57;97486.98;;;10.55;55.63
41306;BME280;27051;50.376;19.152;2023-02-21T00:11:23;97495.42;;;10.54;55.69
41306;BME280;27051;50.376;19.152;2023-02-21T00:13:50;97495.91;;;10.53;55.64
41306;BME280;27051;50.376;19.152;2023-02-21T00:16:16;97496.29;;;10.52;55.87
41306;BME280;27051;50.376;19.152;2023-02-21T00:18:42;97501.33;;;10.47;56.01
41306;BME280;27051;50.376;19.152;2023-02-21T00:21:09;97492.88;;;10.40;56.14
41306;BME280;27051;50.376;19.152;2023-02-21T00:23:35;97498.45;;;10.41;56.37
41306;BME280;27051;50.376;19.152;2023-02-21T00:26:01;97496.80;;;10.39;56.31
41306;BME280;27051;50.376;19.152;2023-02-21T00:28:28;97498.06;;;10.38;56.42
41306;BME280;27051;50.376;19.152;2023-02-21T00:30:57;97498.27;;;10.33;56.44
41306;BME280;27051;50.376;19.152;2023-02-21T00:33:23;97497.49;;;10.29;56.66
41306;BME280;27051;50.376;19.152;2023-02-21T00:35:49;97492.23;;;10.24;56.59
41306;BME280;27051;50.376;19.152;2023-02-21T00:38:15;97493.63;;;10.21;56.77
41306;BME280;27051;50.376;19.152;2023-02-21T00:40:41;97494.29;;;10.16;57.27
41306;BME280;27051;50.376;19.152;2023-02-21T00:43:07;97490.89;;;10.12;57.19
41306;BME280;27051;50.376;19.152;2023-02-21T00:45:34;97491.59;;;10.09;57.78
41306;BME280;27051;50.376;19.152;2023-02-21T00:48:00;97492.56;;;9.98;58.50
41306;BME280;27051;50.376;19.152;2023-02-21T00:50:26;97491.64;;;9.90;58.83
41306;BME280;27051;50.376;19.152;2023-02-21T00:52:52;97489.38;;;9.82;59.09
41306;BME280;27051;50.376;19.152;2023-02-21T00:55:19;97489.33;;;9.70;59.24
41306;BME280;27051;50.376;19.152;2023-02-21T00:57:45;97494.78;;;9.64;59.88
41306;BME280;27051;50.376;19.152;2023-02-21T01:00:19;97498.86;;;9.55;60.15
41306;BME280;27051;50.376;19.152;2023-02-21T01:02:45;97493.52;;;9.44;60.03
41306;BME280;27051;50.376;19.152;2023-02-21T01:05:11;97491.23;;;9.42;60.85
41306;BME280;27051;50.376;19.152;2023-02-21T01:07:38;97488.01;;;9.38;60.52
41306;BME280;27051;50.376;19.152;2023-02-21T01:10:07;97493.13;;;9.31;61.97
41306;BME280;27051;50.376;19.152;2023-02-21T01:12:35;97487.45;;;9.19;61.32
41306;BME280;27051;50.376;19.152;2023-02-21T01:15:02;97489.35;;;9.15;62.31
41306;BME280;27051;50.376;19.152;2023-02-21T01:17:28;97485.90;;;9.09;62.19
41306;BME280;27051;50.376;19.152;2023-02-21T01:20:00;97484.48;;;9.04;62.60
41306;BME280;27051;50.376;19.152;2023-02-21T01:22:33;97486.93;;;9.01;62.07
41306;BME280;27051;50.376;19.152;2023-02-21T01:25:06;97481.69;;;9.03;62.17
41306;BME280;27051;50.376;19.152;2023-02-21T01:27:32;97482.56;;;9.01;62.88
41306;BME280;27051;50.376;19.152;2023-02-21T01:30:06;97474.00;;;8.96;63.49
41306;BME280;27051;50.376;19.152;2023-02-21T01:32:35;97476.21;;;8.86;63.43
41306;BME280;27051;50.376;19.152;2023-02-21T01:35:05;97477.01;;;8.88;63.30
41306;BME280;27051;50.376;19.152;2023-02-21T01:37:31;97472.48;;;8.88;63.46
41306;BME280;27051;50.376;19.152;2023-02-21T01:39:58;97467.27;;;8.87;64.12
41306;BME280;27051;50.376;19.152;2023-02-21T01:42:25;97461.15;;;8.79;63.99
41306;BME280;27051;50.376;19.152;2023-02-21T01:45:40;97461.12;;;8.75;64.49
41306;BME280;27051;50.376;19.152;2023-02-21T01:48:15;97455.77;;;8.75;64.52
41306;BME280;27051;50.376;19.152;2023-02-21T01:50:42;97455.42;;;8.73;65.05
41306;BME280;27051;50.376;19.152;2023-02-21T01:53:14;97452.75;;;8.68;65.25
41306;BME280;27051;50.376;19.152;2023-02-21T01:55:42;97450.80;;;8.70;65.30
41306;BME280;27051;50.376;19.152;2023-02-21T01:58:13;97443.89;;;8.69;65.12
41306;BME280;27051;50.376;19.152;2023-02-21T02:00:43;97443.23;;;8.67;65.31
41306;BME280;27051;50.376;19.152;2023-02-21T02:03:13;97443.58;;;8.65;65.49
41306;BME280;27051;50.376;19.152;2023-02-21T02:05:42;97441.09;;;8.67;65.75
41306;BME280;27051;50.376;19.152;2023-02-21T02:08:10;97441.79;;;8.64;66.13
41306;BME280;27051;50.376;19.152;2023-02-21T02:10:38;97438.15;;;8.63;66.53
41306;BME280;27051;50.376;19.152;2023-02-21T02:16:03;97441.13;;;8.65;66.66
41306;BME280;27051;50.376;19.152;2023-02-21T02:22:37;97438.67;;;8.60;66.91
41306;BME280;27051;50.376;19.152;2023-02-21T02:36:17;97438.28;;;8.60;67.28
41306;BME280;27051;50.376;19.152;2023-02-21T02:39:18;97441.41;;;8.54;67.98
41306;BME280;27051;50.376;19.152;2023-02-21T02:44:40;97440.27;;;8.52;67.99
41306;BME280;27051;50.376;19.152;2023-02-21T02:47:21;97437.71;;;8.56;67.75
41306;BME280;27051;50.376;19.152;2023-02-21T02:49:54;97435.85;;;8.60;68.09
41306;BME280;27051;50.376;19.152;2023-02-21T02:52:20;97437.05;;;8.62;68.51
41306;BME280;27051;50.376;19.152;2023-02-21T02:57:47;97439.27;;;8.65;68.37
41306;BME280;27051;50.376;19.152;2023-02-21T03:00:16;97436.35;;;8.62;68.72
41306;BME280;27051;50.376;19.152;2023-02-21T03:08:40;97441.23;;;8.63;68.68
41306;BME280;27051;50.376;19.152;2023-02-21T03:11:16;97436.08;;;8.60;69.08
41306;BME280;27051;50.376;19.152;2023-02-21T03:13:57;97439.48;;;8.59;69.16
41306;BME280;27051;50.376;19.152;2023-02-21T03:16:38;97434.16;;;8.55;69.00
41306;BME280;27051;50.376;19.152;2023-02-21T03:19:24;97435.08;;;8.51;70.06
41306;BME280;27051;50.376;19.152;2023-02-21T03:21:59;97429.02;;;8.45;69.92
41306;BME280;27051;50.376;19.152;2023-02-21T03:24:37;97429.20;;;8.43;70.04
41306;BME280;27051;50.376;19.152;2023-02-21T03:27:06;97428.31;;;8.47;69.52
41306;BME280;27051;50.376;19.152;2023-02-21T03:29:34;97432.94;;;8.49;69.26
41306;BME280;27051;50.376;19.152;2023-02-21T03:34:33;97434.68;;;8.51;69.87
41306;BME280;27051;50.376;19.152;2023-02-21T03:37:00;97434.50;;;8.50;69.85
41306;BME280;27051;50.376;19.152;2023-02-21T03:39:26;97434.39;;;8.51;69.71
41306;BME280;27051;50.376;19.152;2023-02-21T03:41:53;97439.57;;;8.56;70.22
41306;BME280;27051;50.376;19.152;2023-02-21T03:44:21;97428.85;;;8.56;70.06
41306;BME280;27051;50.376;19.152;2023-02-21T03:46:50;97437.02;;;8.53;70.16
41306;BME280;27051;50.376;19.152;2023-02-21T03:49:40;97427.67;;;8.52;70.42
41306;BME280;27051;50.376;19.152;2023-02-21T03:52:20;97431.30;;;8.53;70.25
41306;BME280;27051;50.376;19.152;2023-02-21T03:54:48;97435.52;;;8.54;70.20
41306;BME280;27051;50.376;19.152;2023-02-21T03:57:15;97440.13;;;8.57;70.25
41306;BME280;27051;50.376;19.152;2023-02-21T03:59:44;97437.69;;;8.57;70.02
41306;BME280;27051;50.376;19.152;2023-02-21T04:02:12;97440.10;;;8.62;70.23
41306;BME280;27051;50.376;19.152;2023-02-21T04:04:40;97435.78;;;8.63;70.69
41306;BME280;27051;50.376;19.152;2023-02-21T04:07:08;97430.46;;;8.62;70.58
41306;BME280;27051;50.376;19.152;2023-02-21T04:09:36;97433.25;;;8.60;70.58
41306;BME280;27051;50.376;19.152;2023-02-21T04:12:04;97438.55;;;8.58;70.74
41306;BME280;27051;50.376;19.152;2023-02-21T04:14:33;97438.36;;;8.59;70.52
41306;BME280;27051;50.376;19.152;2023-02-21T04:17:01;97442.35;;;8.63;70.49
41306;BME280;27051;50.376;19.152;2023-02-21T04:19:28;97440.23;;;8.56;70.82
41306;BME280;27051;50.376;19.152;2023-02-21T04:21:55;97438.90;;;8.54;70.81
41306;BME280;27051;50.376;19.152;2023-02-21T04:24:24;97437.45;;;8.60;71.19
41306;BME280;27051;50.376;19.152;2023-02-21T04:26:51;97438.77;;;8.63;70.64
41306;BME280;27051;50.376;19.152;2023-02-21T04:29:21;97442.76;;;8.63;70.69
41306;BME280;27051;50.376;19.152;2023-02-21T04:31:50;97443.79;;;8.68;70.54
41306;BME280;27051;50.376;19.152;2023-02-21T04:34:17;97447.20;;;8.67;70.60
41306;BME280;27051;50.376;19.152;2023-02-21T04:36:44;97447.95;;;8.66;70.87
41306;BME280;27051;50.376;19.152;2023-02-21T04:39:14;97453.11;;;8.64;70.96
41306;BME280;27051;50.376;19.152;2023-02-21T04:41:41;97448.66;;;8.67;70.72
41306;BME280;27051;50.376;19.152;2023-02-21T04:44:07;97445.10;;;8.65;70.61
41306;BME280;27051;50.376;19.152;2023-02-21T04:46:34;97446.13;;;8.61;70.90
41306;BME280;27051;50.376;19.152;2023-02-21T04:49:01;97443.50;;;8.60;70.79
41306;BME280;27051;50.376;19.152;2023-02-21T04:51:28;97433.43;;;8.61;70.94
41306;BME280;27051;50.376;19.152;2023-02-21T04:53:56;97439.61;;;8.61;71.15
41306;BME280;27051;50.376;19.152;2023-02-21T04:56:26;97442.48;;;8.61;70.92
41306;BME280;27051;50.376;19.152;2023-02-21T04:58:54;97440.95;;;8.62;71.16
41306;BME280;27051;50.376;19.152;2023-02-21T05:01:25;97440.00;;;8.58;71.33
41306;BME280;27051;50.376;19.152;2023-02-21T05:03:52;97440.86;;;8.56;71.96
41306;BME280;27051;50.376;19.152;2023-02-21T05:06:23;97442.70;;;8.56;71.47
41306;BME280;27051;50.376;19.152;2023-02-21T05:08:52;97439.43;;;8.51;71.52
41306;BME280;27051;50.376;19.152;2023-02-21T05:11:22;97437.98;;;8.54;71.29
41306;BME280;27051;50.376;19.152;2023-02-21T05:13:51;97436.45;;;8.57;71.42
41306;BME280;27051;50.376;19.152;2023-02-21T05:16:19;97439.17;;;8.55;71.44
41306;BME280;27051;50.376;19.152;2023-02-21T05:18:47;97434.77;;;8.57;71.84
41306;BME280;27051;50.376;19.152;2023-02-21T05:21:17;97429.83;;;8.55;71.49
41306;BME280;27051;50.376;19.152;2023-02-21T05:23:45;97426.16;;;8.53;71.92
41306;BME280;27051;50.376;19.152;2023-02-21T05:26:14;97417.95;;;8.52;71.71
41306;BME280;27051;50.376;19.152;2023-02-21T05:28:41;97425.69;;;8.52;72.10
41306;BME280;27051;50.376;19.152;2023-02-21T05:31:08;97421.97;;;8.50;72.09
41306;BME280;27051;50.376;19.152;2023-02-21T05:33:38;97426.36;;;8.51;72.08
41306;BME280;27051;50.376;19.152;2023-02-21T05:36:05;97429.65;;;8.46;72.34
41306;BME280;27051;50.376;19.152;2023-02-21T05:38:31;97434.36;;;8.41;71.88
41306;BME280;27051;50.376;19.152;2023-02-21T05:40:58;97435.05;;;8.42;72.19
41306;BME280;27051;50.376;19.152;2023-02-21T05:43:24;97430.73;;;8.43;72.09
41306;BME280;27051;50.376;19.152;2023-02-21T05:45:50;97432.77;;;8.48;72.04
41306;BME280;27051;50.376;19.152;2023-02-21T05:48:17;97434.27;;;8.50;72.06
41306;BME280;27051;50.376;19.152;2023-02-21T05:50:44;97427.00;;;8.47;72.03
41306;BME280;27051;50.376;19.152;2023-02-21T05:53:11;97424.29;;;8.48;72.04
41306;BME280;27051;50.376;19.152;2023-02-21T05:55:38;97420.38;;;8.51;72.47
41306;BME280;27051;50.376;19.152;2023-02-21T05:58:04;97427.17;;;8.51;72.24
41306;BME280;27051;50.376;19.152;2023-02-21T06:00:30;97431.31;;;8.51;71.89
41306;BME280;27051;50.376;19.152;2023-02-21T06:02:57;97435.65;;;8.53;72.13
41306;BME280;27051;50.376;19.152;2023-02-21T06:05:24;97437.23;;;8.55;72.04
41306;BME280;27051;50.376;19.152;2023-02-21T06:07:51;97435.52;;;8.57;72.27
41306;BME280;27051;50.376;19.152;2023-02-21T06:10:18;97443.41;;;8.60;72.03
41306;BME280;27051;50.376;19.152;2023-02-21T06:12:44;97435.98;;;8.59;72.31
41306;BME280;27051;50.376;19.152;2023-02-21T06:15:11;97436.91;;;8.59;72.09
41306;BME280;27051;50.376;19.152;2023-02-21T06:17:38;97432.52;;;8.61;72.01
41306;BME280;27051;50.376;19.152;2023-02-21T06:20:05;97434.52;;;8.64;72.07
41306;BME280;27051;50.376;19.152;2023-02-21T06:25:14;97442.36;;;8.60;72.32
41306;BME280;27051;50.376;19.152;2023-02-21T06:27:41;97450.02;;;8.58;72.21
41306;BME280;27051;50.376;19.152;2023-02-21T06:30:10;97448.23;;;8.59;72.22
41306;BME280;27051;50.376;19.152;2023-02-21T06:32:37;97453.36;;;8.60;72.15
41306;BME280;27051;50.376;19.152;2023-02-21T06:35:06;97459.64;;;8.60;72.35
41306;BME280;27051;50.376;19.152;2023-02-21T06:37:34;97470.48;;;8.59;72.39
41306;BME280;27051;50.376;19.152;2023-02-21T06:40:03;97467.71;;;8.64;72.28
41306;BME280;27051;50.376;19.152;2023-02-21T06:42:30;97466.89;;;8.67;72.30
41306;BME280;27051;50.376;19.152;2023-02-21T06:44:59;97471.63;;;8.70;72.37
41306;BME280;27051;50.376;19.152;2023-02-21T06:47:26;97475.20;;;8.72;72.45
41306;BME280;27051;50.376;19.152;2023-02-21T06:49:53;97478.36;;;8.73;72.41
41306;BME280;27051;50.376;19.152;2023-02-21T06:52:21;97477.58;;;8.75;72.44
41306;BME280;27051;50.376;19.152;2023-02-21T06:54:51;97477.27;;;8.75;72.38
41306;BME280;27051;50.376;19.152;2023-02-21T06:57:18;97479.58;;;8.78;72.59
41306;BME280;27051;50.376;19.152;2023-02-21T06:59:44;97476.30;;;8.81;72.50
41306;BME280;27051;50.376;19.152;2023-02-21T07:02:16;97477.68;;;8.87;72.38
41306;BME280;27051;50.376;19.152;2023-02-21T07:04:45;97480.59;;;8.90;72.50
41306;BME280;27051;50.376;19.152;2023-02-21T07:07:12;97475.85;;;8.90;72.29
41306;BME280;27051;50.376;19.152;2023-02-21T07:09:38;97476.98;;;8.93;72.42
41306;BME280;27051;50.376;19.152;2023-02-21T07:12:04;97478.33;;;8.94;72.26
41306;BME280;27051;50.376;19.152;2023-02-21T07:14:30;97487.04;;;8.96;72.25
41306;BME280;27051;50.376;19.152;2023-02-21T07:16:58;97487.23;;;8.95;72.28
41306;BME280;27051;50.376;19.152;2023-02-21T07:19:24;97487.52;;;8.92;72.41
41306;BME280;27051;50.376;19.152;2023-02-21T07:21:52;97483.90;;;8.94;72.40
41306;BME280;27051;50.376;19.152;2023-02-21T07:24:18;97490.29;;;8.98;72.31
41306;BME280;27051;50.376;19.152;2023-02-21T07:26:44;97489.36;;;9.01;72.25
41306;BME280;27051;50.376;19.152;2023-02-21T07:29:10;97492.51;;;9.01;72.25
41306;BME280;27051;50.376;19.152;2023-02-21T07:31:36;97497.89;;;8.99;72.27
41306;BME280;27051;50.376;19.152;2023-02-21T07:34:02;97498.52;;;8.96;72.30
41306;BME280;27051;50.376;19.152;2023-02-21T07:36:30;97496.16;;;8.94;72.53
41306;BME280;27051;50.376;19.152;2023-02-21T07:38:56;97492.83;;;8.96;72.44
41306;BME280;27051;50.376;19.152;2023-02-21T07:41:23;97491.67;;;8.95;72.27
41306;BME280;27051;50.376;19.152;2023-02-21T07:43:50;97491.10;;;8.96;72.57
41306;BME280;27051;50.376;19.152;2023-02-21T07:46:18;97488.68;;;8.98;72.59
41306;BME280;27051;50.376;19.152;2023-02-21T07:48:55;97486.27;;;8.99;72.35
41306;BME280;27051;50.376;19.152;2023-02-21T07:51:22;97490.37;;;9.04;72.53
41306;BME280;27051;50.376;19.152;2023-02-21T07:53:53;97489.45;;;9.10;72.42
41306;BME280;27051;50.376;19.152;2023-02-21T07:56:19;97488.38;;;9.13;72.35
41306;BME280;27051;50.376;19.152;2023-02-21T07:58:45;97487.67;;;9.09;72.47
41306;BME280;27051;50.376;19.152;2023-02-21T08:01:11;97491.48;;;9.11;72.47
41306;BME280;27051;50.376;19.152;2023-02-21T08:03:38;97489.80;;;9.15;72.52
41306;BME280;27051;50.376;19.152;2023-02-21T08:06:07;97497.55;;;9.20;72.39
41306;BME280;27051;50.376;19.152;2023-02-21T08:08:43;97498.27;;;9.28;72.18
41306;BME280;27051;50.376;19.152;2023-02-21T08:11:12;97494.30;;;9.38;72.34
41306;BME280;27051;50.376;19.152;2023-02-21T08:13:39;97497.58;;;9.44;72.16
41306;BME280;27051;50.376;19.152;2023-02-21T08:16:06;97495.64;;;9.46;71.98
41306;BME280;27051;50.376;19.152;2023-02-21T08:18:33;97502.19;;;9.47;71.97
41306;BME280;27051;50.376;19.152;2023-02-21T08:21:01;97505.52;;;9.49;71.97
41306;BME280;27051;50.376;19.152;2023-02-21T08:23:28;97510.33;;;9.51;71.95
41306;BME280;27051;50.376;19.152;2023-02-21T08:25:56;97509.19;;;9.48;71.81
41306;BME280;27051;50.376;19.152;2023-02-21T08:28:26;97517.74;;;9.47;71.68
41306;BME280;27051;50.376;19.152;2023-02-21T08:30:52;97522.80;;;9.50;71.86
41306;BME280;27051;50.376;19.152;2023-02-21T08:33:19;97521.59;;;9.47;71.72
41306;BME280;27051;50.376;19.152;2023-02-21T08:35:45;97524.11;;;9.44;71.86
41306;BME280;27051;50.376;19.152;2023-02-21T08:38:11;97529.25;;;9.39;71.93
41306;BME280;27051;50.376;19.152;2023-02-21T08:40:37;97527.18;;;9.39;72.10
41306;BME280;27051;50.376;19.152;2023-02-21T08:43:03;97527.68;;;9.43;72.12
41306;BME280;27051;50.376;19.152;2023-02-21T08:45:30;97524.65;;;9.47;72.12
41306;BME280;27051;50.376;19.152;2023-02-21T08:48:09;97534.75;;;9.50;72.18
41306;BME280;27051;50.376;19.152;2023-02-21T08:50:35;97534.09;;;9.51;72.09
41306;BME280;27051;50.376;19.152;2023-02-21T08:53:01;97541.72;;;9.56;72.17
41306;BME280;27051;50.376;19.152;2023-02-21T08:55:27;97535.68;;;9.69;72.11
41306;BME280;27051;50.376;19.152;2023-02-21T08:57:53;97535.44;;;9.81;71.93
41306;BME280;27051;50.376;19.152;2023-02-21T09:00:22;97534.55;;;9.86;71.72
41306;BME280;27051;50.376;19.152;2023-02-21T09:02:51;97536.09;;;9.89;71.59
41306;BME280;27051;50.376;19.152;2023-02-21T09:05:21;97540.73;;;9.89;71.61
41306;BME280;27051;50.376;19.152;2023-02-21T09:07:47;97542.80;;;9.84;71.56
41306;BME280;27051;50.376;19.152;2023-02-21T09:10:15;97544.06;;;9.83;71.58
41306;BME280;27051;50.376;19.152;2023-02-21T09:12:41;97549.30;;;9.84;71.55
41306;BME280;27051;50.376;19.152;2023-02-21T09:15:07;97552.50;;;9.86;71.52
41306;BME280;27051;50.376;19.152;2023-02-21T09:17:34;97555.27;;;9.84;71.56
41306;BME280;27051;50.376;19.152;2023-02-21T09:20:04;97558.38;;;9.88;71.53
41306;BME280;27051;50.376;19.152;2023-02-21T09:22:32;97561.77;;;9.98;71.57
41306;BME280;27051;50.376;19.152;2023-02-21T09:24:59;97557.69;;;10.11;71.27
41306;BME280;27051;50.376;19.152;2023-02-21T09:27:25;97559.61;;;10.25;71.05
41306;BME280;27051;50.376;19.152;2023-02-21T09:29:52;97568.40;;;10.39;71.08
41306;BME280;27051;50.376;19.152;2023-02-21T09:32:18;97567.15;;;10.60;71.02
41306;BME280;27051;50.376;19.152;2023-02-21T09:34:44;97563.65;;;10.80;70.58
41306;BME280;27051;50.376;19.152;2023-02-21T09:37:10;97571.06;;;10.93;70.12
41306;BME280;27051;50.376;19.152;2023-02-21T09:39:37;97571.15;;;10.97;69.85
41306;BME280;27051;50.376;19.152;2023-02-21T09:42:03;97573.63;;;11.02;69.47
41306;BME280;27051;50.376;19.152;2023-02-21T09:44:29;97566.52;;;11.12;69.55
41306;BME280;27051;50.376;19.152;2023-02-21T09:47:03;97567.79;;;11.26;69.31
41306;BME280;27051;50.376;19.152;2023-02-21T09:49:37;97572.09;;;11.47;68.79
41306;BME280;27051;50.376;19.152;2023-02-21T09:52:04;97568.86;;;11.56;68.19
41306;BME280;27051;50.376;19.152;2023-02-21T09:54:45;97566.15;;;11.68;68.50
41306;BME280;27051;50.376;19.152;2023-02-21T09:57:14;97562.61;;;12.04;68.48
41306;BME280;27051;50.376;19.152;2023-02-21T09:59:40;97561.66;;;12.28;66.84
41306;BME280;27051;50.376;19.152;2023-02-21T10:07:44;97569.42;;;12.22;66.52
41306;BME280;27051;50.376;19.152;2023-02-21T10:10:32;97568.11;;;12.11;66.90
41306;BME280;27051;50.376;19.152;2023-02-21T10:16:58;97569.30;;;11.82;67.14
41306;BME280;27051;50.376;19.152;2023-02-21T10:19:25;97577.16;;;11.69;67.31
41306;BME280;27051;50.376;19.152;2023-02-21T10:21:55;97577.09;;;11.60;67.35
41306;BME280;27051;50.376;19.152;2023-02-21T10:24:23;97578.92;;;11.50;67.43
41306;BME280;27051;50.376;19.152;2023-02-21T10:29:29;97576.30;;;11.38;67.88
41306;BME280;27051;50.376;19.152;2023-02-21T10:32:01;97581.10;;;11.23;67.47
41306;BME280;27051;50.376;19.152;2023-02-21T10:34:29;97581.52;;;11.09;67.91
41306;BME280;27051;50.376;19.152;2023-02-21T10:36:58;97600.39;;;11.03;68.09
41306;BME280;27051;50.376;19.152;2023-02-21T10:39:45;97601.57;;;10.89;68.14
41306;BME280;27051;50.376;19.152;2023-02-21T10:42:22;97602.85;;;10.84;68.55
41306;BME280;27051;50.376;19.152;2023-02-21T10:44:51;97594.48;;;10.96;68.63
41306;BME280;27051;50.376;19.152;2023-02-21T10:47:22;97594.85;;;11.23;68.88
41306;BME280;27051;50.376;19.152;2023-02-21T10:52:26;97597.35;;;11.80;67.66
41306;BME280;27051;50.376;19.152;2023-02-21T10:55:06;97591.60;;;11.81;67.04
41306;BME280;27051;50.376;19.152;2023-02-21T10:57:33;97595.65;;;11.75;66.76
41306;BME280;27051;50.376;19.152;2023-02-21T11:00:00;97598.92;;;11.64;66.96
41306;BME280;27051;50.376;19.152;2023-02-21T11:02:31;97600.52;;;11.51;66.99
41306;BME280;27051;50.376;19.152;2023-02-21T11:05:27;97601.02;;;11.39;67.34
41306;BME280;27051;50.376;19.152;2023-02-21T11:08:02;97599.81;;;11.21;66.97
41306;BME280;27051;50.376;19.152;2023-02-21T11:10:43;97601.58;;;11.05;67.04
41306;BME280;27051;50.376;19.152;2023-02-21T11:15:35;97602.23;;;10.85;67.37
41306;BME280;27051;50.376;19.152;2023-02-21T11:18:12;97605.73;;;10.86;67.67
41306;BME280;27051;50.376;19.152;2023-02-21T11:20:39;97606.96;;;10.94;67.71
41306;BME280;27051;50.376;19.152;2023-02-21T11:23:18;97612.09;;;10.97;67.79
41306;BME280;27051;50.376;19.152;2023-02-21T11:25:45;97616.65;;;11.02;67.94
41306;BME280;27051;50.376;19.152;2023-02-21T11:30:41;97614.95;;;11.09;68.17
41306;BME280;27051;50.376;19.152;2023-02-21T11:33:09;97618.38;;;11.15;67.98
41306;BME280;27051;50.376;19.152;2023-02-21T11:38:29;97618.24;;;11.36;67.72
41306;BME280;27051;50.376;19.152;2023-02-21T11:40:56;97615.70;;;11.44;67.62
41306;BME280;27051;50.376;19.152;2023-02-21T11:43:31;97620.23;;;11.94;67.50
41306;BME280;27051;50.376;19.152;2023-02-21T11:52:30;97612.70;;;15.68;61.25
41306;BME280;27051;50.376;19.152;2023-02-21T11:54:25;97613.36;;;15.84;60.93
41306;BME280;27051;50.376;19.152;2023-02-21T11:57:16;97614.63;;;15.38;60.68
41306;BME280;27051;50.376;19.152;2023-02-21T12:08:26;97614.98;;;16.68;58.36
41306;BME280;27051;50.376;19.152;2023-02-21T12:11:10;97612.54;;;16.22;58.30
41306;BME280;27051;50.376;19.152;2023-02-21T12:16:20;97616.55;;;16.36;57.36
41306;BME280;27051;50.376;19.152;2023-02-21T12:22:26;97613.09;;;19.30;54.26
41306;BME280;27051;50.376;19.152;2023-02-21T12:30:44;97601.89;;;20.59;52.67
41306;BME280;27051;50.376;19.152;2023-02-21T12:33:35;97597.97;;;20.23;52.29
41306;BME280;27051;50.376;19.152;2023-02-21T12:39:50;97601.63;;;17.90;51.79
41306;BME280;27051;50.376;19.152;2023-02-21T12:48:32;97608.73;;;15.31;53.34
41306;BME280;27051;50.376;19.152;2023-02-21T12:51:07;97616.80;;;14.74;54.19
41306;BME280;27051;50.376;19.152;2023-02-21T12:53:46;97613.74;;;14.34;54.39
41306;BME280;27051;50.376;19.152;2023-02-21T12:56:19;97609.48;;;14.01;54.84
41306;BME280;27051;50.376;19.152;2023-02-21T12:58:55;97609.65;;;13.87;54.80
41306;BME280;27051;50.376;19.152;2023-02-21T13:01:28;97603.45;;;14.12;54.58
41306;BME280;27051;50.376;19.152;2023-02-21T13:06:50;97596.01;;;16.37;52.23
41306;BME280;27051;50.376;19.152;2023-02-21T13:09:36;97592.83;;;17.13;52.16
41306;BME280;27051;50.376;19.152;2023-02-21T13:12:11;97597.76;;;16.67;50.81
41306;BME280;27051;50.376;19.152;2023-02-21T13:14:46;97597.17;;;15.90;51.17
41306;BME280;27051;50.376;19.152;2023-02-21T13:17:14;97603.98;;;15.44;52.36
41306;BME280;27051;50.376;19.152;2023-02-21T13:19:48;97601.88;;;15.23;53.00
41306;BME280;27051;50.376;19.152;2023-02-21T13:25:37;97607.90;;;14.48;53.25
41306;BME280;27051;50.376;19.152;2023-02-21T13:28:16;97607.31;;;14.03;53.93
41306;BME280;27051;50.376;19.152;2023-02-21T13:30:51;97608.98;;;13.72;54.64
41306;BME280;27051;50.376;19.152;2023-02-21T13:33:39;97615.50;;;13.53;55.24
41306;BME280;27051;50.376;19.152;2023-02-21T13:38:44;97610.07;;;13.18;56.00
41306;BME280;27051;50.376;19.152;2023-02-21T13:41:11;97609.55;;;13.75;55.52
41306;BME280;27051;50.376;19.152;2023-02-21T13:43:46;97613.38;;;15.05;54.19
41306;BME280;27051;50.376;19.152;2023-02-21T13:57:39;97633.42;;;19.03;47.33
41306;BME280;27051;50.376;19.152;2023-02-21T14:10:47;97610.62;;;18.92;48.35
41306;BME280;27051;50.376;19.152;2023-02-21T14:13:38;97606.75;;;19.99;48.19
41306;BME280;27051;50.376;19.152;2023-02-21T14:21:45;97628.42;;;17.89;47.70
41306;BME280;27051;50.376;19.152;2023-02-21T14:24:23;97630.77;;;16.71;48.31
41306;BME280;27051;50.376;19.152;2023-02-21T14:29:35;97638.57;;;15.73;49.65
41306;BME280;27051;50.376;19.152;2023-02-21T14:59:04;97653.45;;;14.86;47.97
41306;BME280;27051;50.376;19.152;2023-02-21T15:01:54;97655.55;;;14.54;48.67
41306;BME280;27051;50.376;19.152;2023-02-21T15:10:11;97672.59;;;13.68;49.25
41306;BME280;27051;50.376;19.152;2023-02-21T15:12:42;97672.83;;;13.53;49.66
41306;BME280;27051;50.376;19.152;2023-02-21T15:15:21;97676.30;;;13.49;49.95
41306;BME280;27051;50.376;19.152;2023-02-21T15:20:25;97679.54;;;13.35;50.30
41306;BME280;27051;50.376;19.152;2023-02-21T15:23:13;97683.10;;;13.20;50.60
41306;BME280;27051;50.376;19.152;2023-02-21T15:25:43;97680.33;;;13.08;50.70
41306;BME280;27051;50.376;19.152;2023-02-21T15:28:29;97684.23;;;13.01;51.01
41306;BME280;27051;50.376;19.152;2023-02-21T15:31:02;97687.23;;;12.89;51.24
41306;BME280;27051;50.376;19.152;2023-02-21T15:33:36;97685.05;;;12.66;51.22
41306;BME280;27051;50.376;19.152;2023-02-21T15:36:19;97686.99;;;12.47;51.44
41306;BME280;27051;50.376;19.152;2023-02-21T15:46:29;97694.44;;;12.00;52.01
41306;BME280;27051;50.376;19.152;2023-02-21T15:49:00;97698.54;;;11.85;51.98
41306;BME280;27051;50.376;19.152;2023-02-21T15:51:29;97698.74;;;11.76;51.83
41306;BME280;27051;50.376;19.152;2023-02-21T15:54:09;97702.81;;;11.68;52.07
41306;BME280;27051;50.376;19.152;2023-02-21T15:56:36;97704.28;;;11.60;52.19
41306;BME280;27051;50.376;19.152;2023-02-21T15:59:18;97703.14;;;11.49;52.22
41306;BME280;27051;50.376;19.152;2023-02-21T16:01:45;97708.17;;;11.39;52.25
41306;BME280;27051;50.376;19.152;2023-02-21T16:04:36;97712.01;;;11.24;52.36
41306;BME280;27051;50.376;19.152;2023-02-21T16:07:04;97714.14;;;11.16;52.60